California Pines, California
Current Conditions -  °F | °C
As of 12:55 PM on Wednesday 26 Nov 2014 (Local Time) from KAAT Reporting Station
Clear Clear  
Wind Chill: 45°   Ceiling: Unl
Heat Index: 45°   Visibility: 10mi
Dew Point: 36°   Wind: 3mph
Humidity: 71%   Direction: 290°WNW
Pressure: 30.31"   Gusts: NA
Location:  41.4836°N, 120.55°W
Report Text: KAAT 262055Z AUTO 29003KT 10SM CLR 07/02 A3031 RMK AO2 SLP272 T00720022
Loading
Personal Weather Stations






























Interactive Weather Map New forecast layout! Learn more

10-Day Weather Forecast

Advertisements
Track Severe Weather on mobile